createdAt,value
2019-03-03T00:00:41.841Z,21.22
2019-03-03T00:05:49.252Z,18.64
2019-03-03T00:10:56.425Z,23.29
2019-03-03T00:16:04.739Z,17.89
2019-03-03T00:21:11.780Z,19.95
2019-03-03T00:26:20.067Z,22.04
2019-03-03T00:31:28.235Z,20.55
2019-03-03T00:36:35.386Z,19.69
2019-03-03T00:41:43.664Z,18.12
2019-03-03T00:46:50.972Z,18.15
2019-03-03T00:52:11.140Z,18.82
2019-03-03T00:56:58.517Z,18.94
2019-03-03T01:07:06.630Z,24.46
2019-03-03T01:12:13.819Z,20.82
2019-03-03T01:17:39.047Z,14.93
2019-03-03T01:22:26.298Z,20.40
2019-03-03T01:27:33.694Z,16.20
2019-03-03T01:32:41.942Z,22.35
2019-03-03T01:38:02.288Z,18.53
2019-03-03T01:42:49.355Z,19.47
2019-03-03T01:47:57.649Z,20.02
2019-03-03T01:53:04.792Z,17.82
2019-03-03T01:58:13.081Z,21.62
2019-03-03T02:03:20.284Z,14.73
2019-03-03T02:08:27.499Z,19.06
2019-03-03T02:13:35.715Z,18.91
2019-03-03T02:18:42.961Z,14.93
2019-03-03T02:23:50.999Z,18.99
2019-03-03T02:28:59.374Z,15.06
2019-03-03T02:34:06.658Z,15.77
2019-03-03T02:39:15.057Z,16.47
2019-03-03T02:44:22.318Z,14.72
2019-03-03T02:49:30.515Z,18.95
2019-03-03T02:54:37.614Z,18.66
2019-03-03T02:59:45.911Z,17.94
2019-03-03T03:04:52.986Z,19.16
2019-03-03T03:10:01.611Z,16.30
2019-03-03T03:16:14.487Z,26.56
2019-03-03T03:21:22.898Z,15.95
2019-03-03T03:26:30.883Z,23.28
2019-03-03T03:31:39.199Z,14.43
2019-03-03T03:36:46.447Z,16.76
2019-03-03T03:41:53.782Z,17.22
2019-03-03T03:47:01.026Z,13.61
2019-03-03T03:52:08.467Z,16.49
2019-03-03T03:57:15.732Z,13.30
2019-03-03T04:02:23.134Z,15.94
2019-03-03T04:07:31.054Z,17.18
2019-03-03T04:12:39.327Z,19.20
2019-03-03T04:22:51.826Z,16.90
2019-03-03T04:27:59.910Z,15.73
2019-03-03T04:33:08.287Z,16.44
2019-03-03T04:38:15.546Z,14.78
2019-03-03T04:43:22.990Z,18.82
2019-03-03T04:48:31.225Z,19.33
2019-03-03T04:53:38.692Z,16.31
2019-03-03T04:58:45.922Z,11.94
2019-03-03T05:03:53.509Z,15.37
2019-03-03T05:09:00.581Z,12.48
2019-03-03T05:14:08.876Z,11.36
2019-03-03T05:19:28.996Z,13.40
2019-03-03T05:24:16.335Z,14.35
2019-03-03T05:29:23.550Z,16.65
2019-03-03T05:34:31.001Z,14.06
2019-03-03T05:39:38.198Z,18.77
2019-03-03T05:44:46.323Z,16.71
2019-03-03T05:49:55.643Z,17.63
2019-03-03T05:55:03.031Z,14.24
2019-03-03T06:00:10.262Z,20.15
2019-03-03T06:05:17.596Z,13.36
2019-03-03T06:10:24.739Z,15.75
2019-03-03T06:15:33.239Z,18.40
2019-03-03T06:25:45.905Z,18.24
2019-03-03T06:30:53.002Z,15.99
2019-03-03T06:36:01.360Z,14.46
2019-03-03T06:41:08.611Z,14.79
2019-03-03T06:46:15.977Z,16.55
2019-03-03T06:51:23.247Z,15.80
2019-03-03T06:56:32.735Z,18.36
2019-03-03T07:01:40.113Z,11.67
2019-03-03T07:07:00.189Z,15.53
2019-03-03T07:11:48.425Z,18.78
2019-03-03T07:16:55.686Z,16.48
2019-03-03T07:22:15.656Z,13.21
2019-03-03T07:27:04.102Z,18.79
2019-03-03T07:32:11.365Z,17.00
2019-03-03T07:37:18.583Z,20.71
2019-03-03T07:42:26.653Z,16.14
2019-03-03T07:47:36.585Z,14.68
2019-03-03T07:52:42.746Z,16.75
2019-03-03T07:57:50.069Z,16.22
2019-03-03T08:02:57.298Z,15.82
2019-03-03T08:08:04.586Z,18.93
2019-03-03T08:13:11.919Z,16.22
2019-03-03T08:18:19.193Z,21.00
2019-03-03T08:23:27.414Z,18.59
2019-03-03T08:28:34.702Z,17.31
2019-03-03T08:33:54.819Z,19.26
2019-03-03T08:38:54.902Z,23.12
2019-03-03T08:43:43.142Z,21.50
2019-03-03T08:48:50.501Z,17.21
2019-03-03T08:53:57.599Z,22.52
2019-03-03T08:59:06.137Z,18.09
2019-03-03T09:04:14.258Z,16.72
2019-03-03T09:09:22.750Z,20.92
2019-03-03T09:14:32.748Z,19.09
2019-03-03T09:19:31.004Z,17.75
2019-03-03T09:24:44.200Z,19.81
2019-03-03T09:29:41.692Z,20.82
2019-03-03T09:34:50.181Z,14.05
2019-03-03T09:40:08.830Z,14.16
2019-03-03T09:44:57.387Z,15.86
2019-03-03T09:50:05.678Z,17.17
2019-03-03T09:55:25.785Z,17.23
2019-03-03T10:00:13.120Z,15.28
2019-03-03T10:05:20.238Z,17.03
2019-03-03T10:10:28.756Z,17.35
2019-03-03T10:15:35.959Z,24.23
2019-03-03T10:20:43.476Z,20.78
2019-03-03T10:25:53.028Z,17.12
2019-03-03T10:30:51.369Z,14.92
2019-03-03T10:35:58.426Z,10.10
2019-03-03T10:46:07.377Z,9.28
2019-03-03T10:51:17.002Z,11.92
2019-03-03T10:56:23.465Z,7.01
2019-03-03T11:01:30.828Z,8.84
2019-03-03T11:06:39.252Z,5.62
2019-03-03T11:16:47.352Z,5.93
2019-03-03T11:21:54.758Z,11.11
2019-03-03T11:27:01.812Z,6.97
2019-03-03T11:38:49.041Z,4.69
2019-03-03T11:43:36.248Z,3.47
2019-03-03T11:48:57.373Z,5.95
2019-03-03T11:53:44.765Z,6.14
2019-03-03T11:58:51.877Z,5.22
2019-03-03T12:04:00.043Z,4.73
2019-03-03T12:09:08.287Z,4.54
2019-03-03T12:14:28.416Z,6.33
2019-03-03T12:19:16.478Z,6.38
2019-03-03T12:24:24.783Z,4.31
2019-03-03T12:29:31.841Z,4.34
2019-03-03T12:34:40.189Z,4.43
2019-03-03T12:39:49.005Z,4.19
2019-03-03T12:44:56.185Z,5.69
2019-03-03T12:50:04.416Z,5.13
2019-03-03T12:55:11.647Z,5.49
2019-03-03T13:00:19.777Z,6.35
2019-03-03T13:05:28.158Z,5.60
2019-03-03T13:10:35.259Z,6.16
2019-03-03T13:15:43.613Z,3.94
2019-03-03T13:20:51.548Z,7.05
2019-03-03T13:25:59.716Z,5.51
2019-03-03T13:31:07.920Z,7.16
2019-03-03T13:36:15.215Z,8.02
2019-03-03T13:41:23.411Z,11.35
2019-03-03T13:46:31.871Z,12.26
2019-03-03T13:51:39.025Z,11.86
2019-03-03T13:56:47.867Z,9.74
2019-03-03T14:01:55.072Z,11.96
2019-03-03T14:07:02.612Z,12.81
2019-03-03T14:12:09.786Z,15.02
2019-03-03T14:17:18.162Z,12.44
2019-03-03T14:22:25.489Z,17.70
2019-03-03T14:27:32.728Z,14.88
2019-03-03T14:32:40.918Z,16.07
2019-03-03T14:37:48.276Z,15.43
2019-03-03T14:42:55.363Z,16.36
2019-03-03T14:48:03.515Z,16.27
2019-03-03T14:53:11.587Z,19.67
2019-03-03T14:58:20.456Z,14.30
2019-03-03T15:03:27.470Z,17.29
2019-03-03T15:08:35.705Z,15.55
2019-03-03T15:13:43.909Z,18.58
2019-03-03T15:18:51.250Z,14.65
2019-03-03T15:23:58.334Z,20.43
2019-03-03T15:29:07.469Z,14.63
2019-03-03T15:34:14.528Z,15.23
2019-03-03T15:39:22.868Z,14.52
2019-03-03T15:44:31.033Z,13.83
2019-03-03T15:49:38.520Z,17.44
2019-03-03T15:54:45.644Z,13.04
2019-03-03T16:00:06.899Z,9.94
2019-03-03T16:04:53.932Z,7.20
2019-03-03T16:10:02.434Z,6.69
2019-03-03T16:15:09.638Z,6.95
2019-03-03T16:20:29.825Z,8.73
2019-03-03T16:25:18.008Z,7.79
2019-03-03T16:30:25.380Z,7.86
2019-03-03T16:35:33.639Z,7.92
2019-03-03T16:40:41.017Z,7.47
2019-03-03T16:45:48.122Z,7.06
2019-03-03T16:50:56.414Z,4.20
2019-03-03T16:56:04.656Z,6.25
2019-03-03T17:01:12.011Z,5.90
2019-03-03T17:06:19.198Z,7.55
2019-03-03T17:11:27.481Z,5.80
2019-03-03T17:16:35.580Z,8.54
2019-03-03T17:21:43.802Z,8.97
2019-03-03T17:26:51.970Z,9.56
2019-03-03T17:37:20.793Z,6.29
2019-03-03T17:42:08.207Z,12.86
2019-03-03T17:47:16.272Z,10.23
2019-03-03T17:52:23.704Z,11.25
2019-03-03T17:57:43.853Z,12.03
2019-03-03T18:02:30.972Z,8.86
2019-03-03T18:07:39.343Z,8.82
2019-03-03T18:22:51.357Z,7.86
2019-03-03T18:33:05.130Z,5.14
2019-03-03T18:38:12.227Z,6.77
2019-03-03T18:43:20.667Z,6.39
2019-03-03T18:48:27.944Z,5.90
2019-03-03T18:53:35.440Z,7.74
2019-03-03T18:58:42.620Z,6.99
2019-03-03T19:03:50.695Z,7.40
2019-03-03T19:08:58.869Z,8.85
2019-03-03T19:14:27.971Z,10.36
2019-03-03T19:19:06.551Z,6.87
2019-03-03T19:24:15.175Z,6.77
2019-03-03T19:29:22.321Z,5.79
2019-03-03T19:34:44.137Z,5.05
2019-03-03T19:39:31.210Z,5.53
2019-03-03T19:44:52.429Z,5.51
2019-03-03T19:49:39.672Z,9.86
2019-03-03T19:54:47.176Z,5.67
2019-03-03T19:59:54.389Z,9.11
2019-03-03T20:05:02.775Z,6.64
2019-03-03T20:10:10.734Z,7.39
2019-03-03T20:15:19.158Z,6.93
2019-03-03T20:20:26.382Z,10.07
2019-03-03T20:25:33.875Z,11.79
2019-03-03T20:30:53.988Z,8.83
2019-03-03T20:35:41.244Z,7.14
2019-03-03T20:40:48.461Z,5.13
2019-03-03T20:45:55.836Z,2.87
2019-03-03T20:51:03.099Z,3.88
2019-03-03T20:56:10.428Z,2.68
2019-03-03T21:01:30.627Z,5.05
2019-03-03T21:06:18.007Z,2.78
2019-03-03T21:11:25.245Z,3.31
2019-03-03T21:16:33.500Z,2.00
2019-03-03T21:21:40.757Z,3.57
2019-03-03T21:26:48.205Z,3.74
2019-03-03T21:31:56.404Z,5.47
2019-03-03T21:37:04.595Z,5.13
2019-03-03T21:42:11.718Z,3.16
2019-03-03T21:47:19.963Z,5.89
2019-03-03T21:52:28.214Z,2.41
2019-03-03T21:57:35.588Z,4.26
2019-03-03T22:02:55.728Z,3.19
2019-03-03T22:07:44.056Z,3.24
2019-03-03T22:12:52.279Z,3.85
2019-03-03T22:17:59.725Z,4.94
2019-03-03T22:23:06.760Z,4.81
2019-03-03T22:28:27.895Z,4.56
2019-03-03T22:33:15.983Z,6.96
2019-03-03T22:38:24.752Z,6.33
2019-03-03T22:43:31.812Z,6.49
2019-03-03T22:48:40.113Z,6.75
2019-03-03T22:53:47.215Z,4.22
2019-03-03T22:59:08.274Z,6.26
2019-03-03T23:03:56.470Z,6.71
2019-03-03T23:14:11.937Z,6.31
2019-03-03T23:19:20.281Z,8.55
2019-03-03T23:24:27.389Z,4.05
2019-03-03T23:29:35.656Z,7.27
2019-03-03T23:34:42.888Z,3.34
2019-03-03T23:39:50.049Z,4.99
2019-03-03T23:44:58.280Z,3.53
2019-03-03T23:50:18.762Z,5.97
2019-03-03T23:55:15.998Z,7.23
